Time;durP1;ratioP1;P1;durP2;ratioP2;P2;SDS_P1;SDS_P2;PMS_P1;PMS_P2;Temp;Humidity;BMP_temperature;BMP_pressure;BME280_temperature;BME280_humidity;BME280_pressure;Samples;Min_cycle;Max_cycle;Signal;HPM_P1;HPM_P2
2022/06/21 00:02:21;;;;;;;2.60;2.40;;;;;;;;;;5054431;28;20256;-86
2022/06/21 00:04:56;;;;;;;3.20;2.90;;;;;;;;;;5054318;28;20293;-86
2022/06/21 00:07:26;;;;;;;2.60;2.27;;;;;;;;;;5054409;28;20312;-87
2022/06/21 00:09:53;;;;;;;5.43;2.40;;;;;;;;;;5053768;28;20198;-86
2022/06/21 00:12:27;;;;;;;5.83;2.77;;;;;;;;;;5054451;28;20281;-86
2022/06/21 00:14:57;;;;;;;3.10;2.90;;;;;;;;;;5054494;28;20271;-87
2022/06/21 00:17:24;;;;;;;3.17;2.97;;;;;;;;;;5054558;28;20198;-86
2022/06/21 00:19:52;;;;;;;2.87;2.67;;;;;;;;;;5054031;28;20626;-86
2022/06/21 00:22:21;;;;;;;5.37;2.80;;;;;;;;;;5054139;28;20201;-86
2022/06/21 00:24:48;;;;;;;3.00;2.80;;;;;;;;;;5054190;28;20280;-87
2022/06/21 00:27:17;;;;;;;2.50;2.30;;;;;;;;;;5054435;28;20661;-86
2022/06/21 00:29:45;;;;;;;3.30;2.60;;;;;;;;;;5054424;28;20208;-86
2022/06/21 00:32:13;;;;;;;2.90;2.70;;;;;;;;;;5053912;28;20197;-86
2022/06/21 00:34:41;;;;;;;3.00;2.30;;;;;;;;;;5053903;28;20205;-86
2022/06/21 00:37:10;;;;;;;3.20;2.90;;;;;;;;;;5053598;28;20190;-87
2022/06/21 00:39:39;;;;;;;4.10;2.37;;;;;;;;;;5054128;28;20224;-86
2022/06/21 00:42:17;;;;;;;4.37;2.53;;;;;;;;;;5053372;28;20202;-86
2022/06/21 00:44:47;;;;;;;3.43;2.93;;;;;;;;;;5054256;28;20199;-86
2022/06/21 00:47:23;;;;;;;5.27;2.60;;;;;;;;;;5053649;28;20206;-86
2022/06/21 00:49:54;;;;;;;2.47;2.27;;;;;;;;;;5054097;28;20268;-86
2022/06/21 00:52:27;;;;;;;2.60;2.40;;;;;;;;;;5053709;28;20243;-87
2022/06/21 00:54:58;;;;;;;2.93;2.70;;;;;;;;;;5053892;28;20703;-86
2022/06/21 00:57:30;;;;;;;2.63;2.47;;;;;;;;;;5053861;28;20185;-86
2022/06/21 01:00:13;;;;;;;2.50;2.30;;;;;;;;;;5053658;28;20183;-86
2022/06/21 01:02:40;;;;;;;2.97;2.77;;;;;;;;;;5053579;28;20182;-85
2022/06/21 01:05:11;;;;;;;4.37;3.00;;;;;;;;;;5053318;28;20205;-86
2022/06/21 01:07:38;;;;;;;2.60;2.40;;;;;;;;;;5053711;28;20235;-87
2022/06/21 01:10:09;;;;;;;3.00;2.60;;;;;;;;;;5053500;28;20736;-87
2022/06/21 01:12:39;;;;;;;3.23;3.03;;;;;;;;;;5053762;28;20186;-87
2022/06/21 01:15:10;;;;;;;4.90;2.80;;;;;;;;;;5053385;28;20259;-87
2022/06/21 01:17:38;;;;;;;3.50;2.60;;;;;;;;;;5053462;28;20185;-86
2022/06/21 01:20:11;;;;;;;2.83;2.63;;;;;;;;;;5052748;28;20740;-86
2022/06/21 01:22:42;;;;;;;3.37;3.17;;;;;;;;;;5053712;28;20230;-86
2022/06/21 01:25:21;;;;;;;2.57;2.37;;;;;;;;;;5053616;28;20197;-86
2022/06/21 01:27:54;;;;;;;2.73;2.33;;;;;;;;;;5050060;28;20300;-86
2022/06/21 01:30:22;;;;;;;3.47;3.17;;;;;;;;;;5033078;28;20206;-86
2022/06/21 01:32:50;;;;;;;2.60;2.40;;;;;;;;;;5033173;28;20241;-87
2022/06/21 01:35:21;;;;;;;2.87;2.67;;;;;;;;;;5032844;28;20289;-87
2022/06/21 01:37:49;;;;;;;2.90;2.70;;;;;;;;;;5033287;28;20209;-86
2022/06/21 01:40:21;;;;;;;3.17;2.87;;;;;;;;;;5033231;28;20624;-86
2022/06/21 01:42:53;;;;;;;3.47;2.63;;;;;;;;;;5032926;28;20186;-86
2022/06/21 01:45:26;;;;;;;3.53;2.97;;;;;;;;;;5032565;28;20236;-86
2022/06/21 01:47:59;;;;;;;4.03;2.83;;;;;;;;;;5038403;28;20213;-86
2022/06/21 01:50:26;;;;;;;3.00;2.80;;;;;;;;;;5051962;28;20195;-86
2022/06/21 01:52:56;;;;;;;3.70;2.80;;;;;;;;;;5052701;28;20193;-87
2022/06/21 01:55:40;;;;;;;2.90;2.70;;;;;;;;;;5052695;28;20229;-86
2022/06/21 01:58:19;;;;;;;3.07;2.87;;;;;;;;;;5052758;28;20178;-87
2022/06/21 02:00:50;;;;;;;2.60;2.40;;;;;;;;;;5052544;28;20280;-86
2022/06/21 02:03:20;;;;;;;2.80;2.60;;;;;;;;;;5052153;28;20197;-86
2022/06/21 02:05:52;;;;;;;2.93;2.73;;;;;;;;;;5052254;28;20265;-86
2022/06/21 02:08:22;;;;;;;2.90;2.70;;;;;;;;;;5052349;28;20206;-86
2022/06/21 02:10:52;;;;;;;2.77;2.40;;;;;;;;;;5052377;28;20185;-86
2022/06/21 02:13:24;;;;;;;3.47;2.90;;;;;;;;;;5051843;28;20671;-86
2022/06/21 02:15:56;;;;;;;3.27;3.07;;;;;;;;;;5052590;28;20196;-86
2022/06/21 02:18:24;;;;;;;2.80;2.63;;;;;;;;;;5051769;28;20217;-86
2022/06/21 02:20:58;;;;;;;3.37;3.07;;;;;;;;;;5052611;28;20617;-86
2022/06/21 02:23:25;;;;;;;2.83;2.63;;;;;;;;;;5052235;28;20213;-87
2022/06/21 02:25:54;;;;;;;2.83;2.60;;;;;;;;;;5052178;28;20673;-86
2022/06/21 02:28:24;;;;;;;2.53;2.40;;;;;;;;;;5051822;28;20229;-87
2022/06/21 02:30:53;;;;;;;2.67;2.47;;;;;;;;;;5052458;28;20574;-87
2022/06/21 02:33:23;;;;;;;3.67;2.37;;;;;;;;;;5051997;28;20194;-86
2022/06/21 02:35:53;;;;;;;3.17;2.57;;;;;;;;;;5052044;28;20194;-87
2022/06/21 02:38:24;;;;;;;2.40;2.27;;;;;;;;;;5051853;28;20198;-87
2022/06/21 02:40:57;;;;;;;2.90;2.70;;;;;;;;;;5052258;28;20186;-87
2022/06/21 02:43:29;;;;;;;2.73;2.53;;;;;;;;;;5052006;28;20665;-86
2022/06/21 02:45:58;;;;;;;2.50;2.30;;;;;;;;;;5052381;28;20248;-87
2022/06/21 02:48:28;;;;;;;2.60;2.40;;;;;;;;;;5051679;28;20227;-86
2022/06/21 02:51:01;;;;;;;2.23;2.13;;;;;;;;;;5051990;28;20247;-86
2022/06/21 02:53:32;;;;;;;2.70;2.50;;;;;;;;;;5051940;28;20661;-86
2022/06/21 02:56:03;;;;;;;2.90;2.30;;;;;;;;;;5051896;28;20174;-87
2022/06/21 02:58:38;;;;;;;3.30;2.97;;;;;;;;;;5046581;28;20199;-86
2022/06/21 03:01:11;;;;;;;2.73;2.53;;;;;;;;;;5034251;28;20225;-86
2022/06/21 03:03:38;;;;;;;3.20;3.00;;;;;;;;;;5036236;28;20222;-86
2022/06/21 03:06:18;;;;;;;2.73;2.53;;;;;;;;;;5036201;28;20220;-86
2022/06/21 03:08:51;;;;;;;2.97;2.60;;;;;;;;;;5035916;28;20191;-87
2022/06/21 03:11:20;;;;;;;3.07;2.73;;;;;;;;;;5036075;28;20289;-86
2022/06/21 03:13:49;;;;;;;3.00;2.80;;;;;;;;;;5035631;28;20673;-86
2022/06/21 03:16:18;;;;;;;3.00;2.50;;;;;;;;;;5035427;28;20292;-87
2022/06/21 03:18:49;;;;;;;2.83;2.63;;;;;;;;;;5035271;28;20313;-86
2022/06/21 03:21:17;;;;;;;3.90;3.20;;;;;;;;;;5035422;28;20190;-86
2022/06/21 03:23:45;;;;;;;3.70;2.90;;;;;;;;;;5035515;28;20292;-87
2022/06/21 03:26:16;;;;;;;2.87;2.67;;;;;;;;;;5035539;28;20694;-86
2022/06/21 03:28:45;;;;;;;7.23;2.87;;;;;;;;;;5035484;28;20329;-86
2022/06/21 03:31:23;;;;;;;3.20;2.90;;;;;;;;;;5035316;28;20197;-86
2022/06/21 03:33:52;;;;;;;5.77;2.57;;;;;;;;;;5035362;28;20361;-86
2022/06/21 03:36:21;;;;;;;4.03;2.97;;;;;;;;;;5035264;28;20202;-87
2022/06/21 03:38:50;;;;;;;4.27;2.63;;;;;;;;;;5035358;28;20198;-86
2022/06/21 03:44:14;;;;;;;2.47;2.37;;;;;;;;;;5035254;28;20631;-86
2022/06/21 03:46:48;;;;;;;7.53;3.20;;;;;;;;;;5034961;28;20273;-86
2022/06/21 03:49:23;;;;;;;4.17;2.90;;;;;;;;;;5035336;28;20268;-86
2022/06/21 03:51:52;;;;;;;4.40;2.33;;;;;;;;;;5035145;28;20190;-87
2022/06/21 03:54:30;;;;;;;3.13;2.77;;;;;;;;;;5034617;28;20238;-86
2022/06/21 03:57:07;;;;;;;3.17;2.70;;;;;;;;;;5034791;28;20205;-86
2022/06/21 03:59:40;;;;;;;3.90;2.87;;;;;;;;;;5034590;28;20265;-86
2022/06/21 04:02:14;;;;;;;2.60;2.40;;;;;;;;;;5034915;28;20237;-86
2022/06/21 04:04:48;;;;;;;3.10;2.90;;;;;;;;;;5034643;28;20182;-86
2022/06/21 04:07:22;;;;;;;5.17;2.50;;;;;;;;;;5034847;28;20264;-86
2022/06/21 04:09:51;;;;;;;2.80;2.60;;;;;;;;;;5034908;28;20182;-86
2022/06/21 04:12:23;;;;;;;3.13;2.80;;;;;;;;;;5033436;28;20203;-86
2022/06/21 04:14:54;;;;;;;7.47;3.17;;;;;;;;;;5034675;28;20182;-86
2022/06/21 04:17:28;;;;;;;3.13;2.70;;;;;;;;;;5049183;28;20667;-87
2022/06/21 04:19:59;;;;;;;5.60;2.67;;;;;;;;;;5054460;28;20225;-89
2022/06/21 04:22:30;;;;;;;3.03;2.83;;;;;;;;;;5054975;28;20186;-90
2022/06/21 04:25:03;;;;;;;5.07;2.87;;;;;;;;;;5055254;28;20239;-88
2022/06/21 04:27:32;;;;;;;3.13;2.93;;;;;;;;;;5055077;28;20225;-91
2022/06/21 04:30:12;;;;;;;2.77;2.57;;;;;;;;;;5055243;28;20198;-90
2022/06/21 04:32:45;;;;;;;3.23;3.03;;;;;;;;;;5054960;28;20182;-89
2022/06/21 04:35:16;;;;;;;4.47;3.13;;;;;;;;;;5055835;28;20567;-90
2022/06/21 04:37:47;;;;;;;2.73;2.53;;;;;;;;;;5055569;28;20201;-91
2022/06/21 04:40:23;;;;;;;3.00;2.70;;;;;;;;;;5054902;28;20232;-90
2022/06/21 04:42:54;;;;;;;4.90;3.17;;;;;;;;;;5055229;28;20285;-90
2022/06/21 04:45:27;;;;;;;4.00;3.60;;;;;;;;;;5054979;28;20186;-89
2022/06/21 04:48:12;;;;;;;3.87;2.67;;;;;;;;;;5054712;28;20209;-90
2022/06/21 04:50:42;;;;;;;3.90;2.80;;;;;;;;;;5054452;28;20186;-89
2022/06/21 04:53:17;;;;;;;3.60;3.30;;;;;;;;;;5054812;28;20665;-90
2022/06/21 04:55:54;;;;;;;6.80;3.20;;;;;;;;;;5054553;28;20243;-89
2022/06/21 04:58:25;;;;;;;3.10;2.80;;;;;;;;;;5054942;28;20185;-88
2022/06/21 05:00:53;;;;;;;3.00;2.70;;;;;;;;;;5054268;28;20197;-90
2022/06/21 05:03:39;;;;;;;3.00;2.60;;;;;;;;;;5054908;28;20256;-90
2022/06/21 05:06:15;;;;;;;2.77;2.57;;;;;;;;;;5054641;28;20224;-90
2022/06/21 05:08:50;;;;;;;2.73;2.50;;;;;;;;;;5054514;28;20217;-89
2022/06/21 05:11:23;;;;;;;4.90;2.73;;;;;;;;;;5054313;28;20290;-90
2022/06/21 05:13:53;;;;;;;3.27;2.70;;;;;;;;;;5054246;28;20260;-89
2022/06/21 05:16:26;;;;;;;3.00;2.80;;;;;;;;;;5054333;28;20225;-90
2022/06/21 05:18:58;;;;;;;2.70;2.50;;;;;;;;;;5040309;28;20785;-89
2022/06/21 05:21:31;;;;;;;4.23;2.73;;;;;;;;;;5034928;28;20241;-89
2022/06/21 05:24:00;;;;;;;2.90;2.70;;;;;;;;;;5034576;28;20261;-89
2022/06/21 05:26:35;;;;;;;2.93;2.57;;;;;;;;;;5034659;28;20245;-89
2022/06/21 05:29:07;;;;;;;5.53;3.40;;;;;;;;;;5033842;28;20217;-89
2022/06/21 05:31:39;;;;;;;3.83;2.93;;;;;;;;;;5034335;28;20610;-89
2022/06/21 05:34:16;;;;;;;3.70;3.03;;;;;;;;;;5034761;28;20272;-89
2022/06/21 05:36:54;;;;;;;3.10;2.90;;;;;;;;;;5034233;28;20192;-90
2022/06/21 05:39:24;;;;;;;4.97;3.30;;;;;;;;;;5033862;28;20191;-90
2022/06/21 05:41:54;;;;;;;5.33;3.03;;;;;;;;;;5034614;28;20574;-90
2022/06/21 05:44:28;;;;;;;3.03;2.80;;;;;;;;;;5034081;28;20190;-89
2022/06/21 05:46:58;;;;;;;8.30;3.57;;;;;;;;;;5033912;28;20190;-89
2022/06/21 05:49:29;;;;;;;4.10;2.77;;;;;;;;;;5033990;28;20211;-90
2022/06/21 05:52:12;;;;;;;3.97;3.03;;;;;;;;;;5034091;28;20282;-91
2022/06/21 05:54:49;;;;;;;4.73;3.17;;;;;;;;;;5033945;28;20233;-90
2022/06/21 05:57:22;;;;;;;3.43;3.13;;;;;;;;;;5033568;28;20182;-90
2022/06/21 05:59:50;;;;;;;4.03;2.77;;;;;;;;;;5034128;28;20619;-91
2022/06/21 06:02:30;;;;;;;4.33;2.97;;;;;;;;;;5034244;28;20241;-89
2022/06/21 06:05:03;;;;;;;7.97;3.77;;;;;;;;;;5033677;28;20272;-88
2022/06/21 06:07:34;;;;;;;4.03;3.57;;;;;;;;;;5033273;28;20197;-89
2022/06/21 06:10:03;;;;;;;3.57;3.27;;;;;;;;;;5033303;28;20211;-89
2022/06/21 06:12:39;;;;;;;3.43;3.03;;;;;;;;;;5033704;28;20226;-90
2022/06/21 06:15:08;;;;;;;4.00;2.90;;;;;;;;;;5033204;28;20245;-89
2022/06/21 06:17:45;;;;;;;3.73;3.33;;;;;;;;;;5033274;28;20247;-90
2022/06/21 06:20:19;;;;;;;3.40;3.10;;;;;;;;;;5032469;28;20317;-89
2022/06/21 06:22:56;;;;;;;4.87;4.37;;;;;;;;;;5033314;28;20269;-89
2022/06/21 06:25:27;;;;;;;3.53;3.23;;;;;;;;;;5033273;28;20182;-90
2022/06/21 06:27:59;;;;;;;6.00;3.40;;;;;;;;;;5033144;28;20264;-90
2022/06/21 06:30:31;;;;;;;3.83;3.53;;;;;;;;;;5033548;28;20571;-91
2022/06/21 06:33:14;;;;;;;3.70;3.40;;;;;;;;;;5033381;28;20297;-90
2022/06/21 06:35:44;;;;;;;4.67;4.30;;;;;;;;;;5033113;28;20187;-90
2022/06/21 06:38:20;;;;;;;4.23;3.40;;;;;;;;;;5033106;28;20206;-91
2022/06/21 06:40:57;;;;;;;3.73;3.43;;;;;;;;;;5032910;28;20225;-89
2022/06/21 06:43:27;;;;;;;4.03;3.73;;;;;;;;;;5033094;28;20240;-90
2022/06/21 06:45:57;;;;;;;4.73;4.20;;;;;;;;;;5032941;28;20202;-90
2022/06/21 06:48:26;;;;;;;3.97;3.27;;;;;;;;;;5032956;28;20260;-90
2022/06/21 06:51:06;;;;;;;3.40;3.10;;;;;;;;;;5033196;28;20229;-89
2022/06/21 06:53:40;;;;;;;3.50;3.30;;;;;;;;;;5033019;28;20187;-90
2022/06/21 06:56:13;;;;;;;3.23;3.03;;;;;;;;;;5033416;28;20276;-90
2022/06/21 06:58:44;;;;;;;3.90;3.57;;;;;;;;;;5032823;28;20248;-89
2022/06/21 07:01:20;;;;;;;4.00;3.37;;;;;;;;;;5033401;28;20183;-89
2022/06/21 07:03:52;;;;;;;5.80;3.77;;;;;;;;;;5033597;28;20616;-90
2022/06/21 07:06:33;;;;;;;4.00;3.37;;;;;;;;;;5032681;28;20256;-90
2022/06/21 07:09:04;;;;;;;5.63;3.77;;;;;;;;;;5032728;28;20238;-90
2022/06/21 07:11:45;;;;;;;4.53;4.10;;;;;;;;;;5032819;28;20187;-90
2022/06/21 07:14:22;;;;;;;5.97;3.60;;;;;;;;;;5033102;28;20214;-90
2022/06/21 07:16:52;;;;;;;3.67;3.37;;;;;;;;;;5032673;28;20198;-90
2022/06/21 07:19:20;;;;;;;4.40;3.80;;;;;;;;;;5032713;28;20226;-90
2022/06/21 07:21:51;;;;;;;3.53;3.17;;;;;;;;;;5032648;28;20226;-90
2022/06/21 07:24:20;;;;;;;4.67;4.30;;;;;;;;;;5032661;28;20281;-90
2022/06/21 07:26:50;;;;;;;4.20;3.80;;;;;;;;;;5032983;28;20613;-90
2022/06/21 07:29:21;;;;;;;4.37;3.83;;;;;;;;;;5032476;28;20280;-90
2022/06/21 07:31:51;;;;;;;4.20;3.33;;;;;;;;;;5032531;28;20187;-90
2022/06/21 07:34:22;;;;;;;4.67;3.40;;;;;;;;;;5032307;28;20201;-89
2022/06/21 07:36:57;;;;;;;4.77;3.30;;;;;;;;;;5032372;28;20209;-90
2022/06/21 07:39:28;;;;;;;6.73;3.70;;;;;;;;;;5032485;28;20187;-90
2022/06/21 07:41:57;;;;;;;3.70;3.30;;;;;;;;;;5032697;28;20276;-90
2022/06/21 07:44:29;;;;;;;5.47;3.83;;;;;;;;;;5032292;28;20195;-90
2022/06/21 07:47:00;;;;;;;5.03;3.30;;;;;;;;;;5032880;28;20191;-89
2022/06/21 07:49:29;;;;;;;5.75;3.72;;;;;;;;;;5036217;28;20289;-90
2022/06/21 07:52:07;;;;;;;3.45;3.20;;;;;;;;;;5035872;28;20203;-90
2022/06/21 07:54:37;;;;;;;3.08;2.85;;;;;;;;;;5035985;28;20191;-90
2022/06/21 07:57:08;;;;;;;4.25;3.33;;;;;;;;;;5036070;28;20183;-89
2022/06/21 07:59:39;;;;;;;4.10;3.40;;;;;;;;;;5035433;28;20179;-91
2022/06/21 08:08:14;;;;;;;3.33;3.10;;;;;;;;;;5033176;28;20726;-89
2022/06/21 08:10:45;;;;;;;2.95;2.75;;;;;;;;;;5035527;28;20191;-91
2022/06/21 08:13:21;;;;;;;3.83;3.08;;;;;;;;;;5035728;28;20279;-90
2022/06/21 08:15:54;;;;;;;4.07;3.60;;;;;;;;;;5035554;28;20264;-91
2022/06/21 08:18:25;;;;;;;8.93;3.03;;;;;;;;;;5034994;28;20202;-90
2022/06/21 08:20:57;;;;;;;3.50;3.20;;;;;;;;;;5036012;28;20568;-90
2022/06/21 08:23:32;;;;;;;3.67;2.95;;;;;;;;;;5035274;28;20274;-90
2022/06/21 08:26:03;;;;;;;3.88;3.15;;;;;;;;;;5035227;28;20186;-90
2022/06/21 08:28:34;;;;;;;4.25;3.42;;;;;;;;;;5034962;28;20222;-91
2022/06/21 08:31:07;;;;;;;3.58;3.28;;;;;;;;;;5035703;28;20229;-90
2022/06/21 08:33:39;;;;;;;5.13;3.20;;;;;;;;;;5035294;28;20198;-91
2022/06/21 08:36:13;;;;;;;2.83;2.63;;;;;;;;;;5035522;28;20199;-89
2022/06/21 08:38:46;;;;;;;3.95;3.65;;;;;;;;;;5035464;28;20197;-90
2022/06/21 08:41:56;;;;;;;3.70;3.40;;;;;;;;;;5035334;28;20261;-90
2022/06/21 08:48:06;;;;;;;9.07;4.65;;;;;;;;;;4972745;28;20596;-90
2022/06/21 08:51:25;;;;;;;4.82;3.95;;;;;;;;;;5035049;28;20195;-90
2022/06/21 08:54:05;;;;;;;4.30;3.90;;;;;;;;;;5002348;28;20206;-90
2022/06/21 08:56:41;;;;;;;3.75;3.45;;;;;;;;;;5034614;28;20202;-91
2022/06/21 08:59:17;;;;;;;3.50;3.20;;;;;;;;;;5034383;28;20196;-89
2022/06/21 09:01:50;;;;;;;6.50;3.72;;;;;;;;;;5034173;28;20193;-89
2022/06/21 09:04:26;;;;;;;5.00;3.97;;;;;;;;;;5035082;28;20191;-89
2022/06/21 09:07:19;;;;;;;13.13;3.28;;;;;;;;;;5034685;28;20248;-90
2022/06/21 09:10:31;;;;;;;4.15;3.75;;;;;;;;;;5034590;28;20253;-90
2022/06/21 09:13:14;;;;;;;4.45;3.88;;;;;;;;;;4935389;29;20630;-90
2022/06/21 09:15:59;;;;;;;4.00;3.70;;;;;;;;;;4935240;29;20191;-89
2022/06/21 09:18:42;;;;;;;8.02;4.20;;;;;;;;;;5033956;28;20278;-91
2022/06/21 09:21:16;;;;;;;4.50;4.10;;;;;;;;;;5034251;28;20186;-90
2022/06/21 09:24:01;;;;;;;4.22;3.92;;;;;;;;;;5033865;28;20189;-90
2022/06/21 09:26:49;;;;;;;5.00;4.30;;;;;;;;;;5034453;28;20229;-91
2022/06/21 09:29:32;;;;;;;3.83;3.50;;;;;;;;;;5033923;28;20254;-90
2022/06/21 09:32:21;;;;;;;7.15;4.45;;;;;;;;;;5034331;28;20195;-89
2022/06/21 09:35:02;;;;;;;3.97;3.75;;;;;;;;;;5034043;28;20206;-90
2022/06/21 09:37:38;;;;;;;6.53;4.68;;;;;;;;;;5033908;28;20284;-90
2022/06/21 09:40:12;;;;;;;3.40;3.20;;;;;;;;;;5033997;28;20221;-90
2022/06/21 09:42:46;;;;;;;3.83;3.53;;;;;;;;;;5034637;28;20199;-90
2022/06/21 09:45:25;;;;;;;4.22;3.35;;;;;;;;;;5033974;28;20198;-90
2022/06/21 09:47:57;;;;;;;4.45;3.60;;;;;;;;;;5034577;28;20198;-90
2022/06/21 09:50:29;;;;;;;4.53;3.80;;;;;;;;;;5035971;28;20298;-88
2022/06/21 09:53:02;;;;;;;4.70;3.60;;;;;;;;;;5034990;28;20672;-91
2022/06/21 09:55:35;;;;;;;3.17;2.97;;;;;;;;;;5033858;28;20282;-91
2022/06/21 09:58:09;;;;;;;4.15;3.70;;;;;;;;;;5034315;28;20289;-89
2022/06/21 10:00:44;;;;;;;5.65;3.88;;;;;;;;;;5033724;28;20610;-90
2022/06/21 10:03:28;;;;;;;3.83;3.53;;;;;;;;;;5033454;28;20194;-90
2022/06/21 10:06:03;;;;;;;3.80;3.45;;;;;;;;;;5033689;28;20183;-90
2022/06/21 10:08:46;;;;;;;4.15;3.33;;;;;;;;;;5033292;28;20191;-89
2022/06/21 10:11:30;;;;;;;4.53;3.28;;;;;;;;;;5032728;28;20195;-90
2022/06/21 10:14:26;;;;;;;3.80;3.10;;;;;;;;;;5033342;28;20186;-90
2022/06/21 10:17:05;;;;;;;3.03;2.72;;;;;;;;;;4953303;28;20280;-89
2022/06/21 10:19:40;;;;;;;2.65;2.45;;;;;;;;;;4952406;28;20292;-91
2022/06/21 10:22:21;;;;;;;2.60;2.40;;;;;;;;;;4954045;29;20205;-90
2022/06/21 10:25:06;;;;;;;3.75;2.58;;;;;;;;;;4953988;29;20284;-90
2022/06/21 10:28:18;;;;;;;2.65;2.45;;;;;;;;;;4953638;29;20198;-89
2022/06/21 10:30:57;;;;;;;4.25;2.75;;;;;;;;;;4936204;28;20792;-89
2022/06/21 10:34:03;;;;;;;4.35;2.40;;;;;;;;;;4953772;29;20190;-92
2022/06/21 10:36:48;;;;;;;6.82;3.40;;;;;;;;;;4942412;28;20244;-89
2022/06/21 10:39:27;;;;;;;4.75;3.22;;;;;;;;;;4953655;29;20218;-89
2022/06/21 10:45:31;;;;;;;7.47;2.60;;;;;;;;;;4954110;29;20189;-90
2022/06/21 10:48:34;;;;;;;3.63;2.08;;;;;;;;;;4943298;29;20206;-90
2022/06/21 10:51:15;;;;;;;4.13;2.15;;;;;;;;;;4916252;29;20203;-90
2022/06/21 10:54:03;;;;;;;2.78;2.58;;;;;;;;;;4981224;28;20252;-90
2022/06/21 11:02:43;;;;;;;3.05;1.98;;;;;;;;;;4953268;29;20185;-89
2022/06/21 11:05:20;;;;;;;2.28;2.05;;;;;;;;;;5010836;28;20230;-90
2022/06/21 11:07:54;;;;;;;2.00;1.90;;;;;;;;;;5032950;28;20245;-89
2022/06/21 11:10:24;;;;;;;1.85;1.75;;;;;;;;;;5033492;28;20211;-89
2022/06/21 11:13:04;;;;;;;3.42;2.53;;;;;;;;;;5033151;28;20241;-89
2022/06/21 11:15:40;;;;;;;2.60;2.17;;;;;;;;;;5033073;28;20199;-91
2022/06/21 11:18:30;;;;;;;5.68;2.63;;;;;;;;;;5032921;28;20198;-88
2022/06/21 11:21:21;;;;;;;4.65;2.75;;;;;;;;;;5033694;28;20699;-89
2022/06/21 11:24:03;;;;;;;3.70;3.00;;;;;;;;;;5036932;28;20187;-92
2022/06/21 11:26:37;;;;;;;3.25;2.95;;;;;;;;;;5036616;28;20187;-90
2022/06/21 11:29:25;;;;;;;8.00;3.40;;;;;;;;;;5037064;28;20276;-89
2022/06/21 11:32:04;;;;;;;3.13;2.92;;;;;;;;;;5036673;28;20183;-93
2022/06/21 11:34:39;;;;;;;3.13;2.83;;;;;;;;;;5037015;28;20625;-91
2022/06/21 11:37:23;;;;;;;3.20;3.00;;;;;;;;;;5036851;28;20190;-90
2022/06/21 11:40:05;;;;;;;3.22;2.92;;;;;;;;;;5036803;28;20232;-91
2022/06/21 11:42:35;;;;;;;3.22;2.92;;;;;;;;;;5036313;28;20187;-89
2022/06/21 11:45:32;;;;;;;4.60;3.42;;;;;;;;;;5036461;28;20198;-89
2022/06/21 11:48:40;;;;;;;3.97;3.42;;;;;;;;;;5036756;28;20694;-90
2022/06/21 11:51:24;;;;;;;4.47;3.50;;;;;;;;;;5035966;28;20217;-89
2022/06/21 11:53:57;;;;;;;8.38;3.78;;;;;;;;;;5035874;28;20217;-93
2022/06/21 11:56:30;;;;;;;5.70;4.18;;;;;;;;;;5036065;28;20195;-89
2022/06/21 11:59:02;;;;;;;15.95;4.63;;;;;;;;;;5035883;28;20286;-91
2022/06/21 12:01:33;;;;;;;4.47;3.85;;;;;;;;;;5036368;28;20281;-90
2022/06/21 12:04:11;;;;;;;7.20;4.00;;;;;;;;;;5036326;28;20587;-90
2022/06/21 12:06:42;;;;;;;5.60;4.20;;;;;;;;;;5036063;28;20268;-92
2022/06/21 12:09:17;;;;;;;8.75;4.60;;;;;;;;;;5036093;28;20246;-89
2022/06/21 12:11:54;;;;;;;5.75;4.50;;;;;;;;;;5036355;28;20579;-90
2022/06/21 12:14:39;;;;;;;5.13;4.57;;;;;;;;;;5035808;28;20190;-89
2022/06/21 12:17:20;;;;;;;5.38;4.88;;;;;;;;;;5035973;28;20183;-90
2022/06/21 12:19:52;;;;;;;11.95;5.15;;;;;;;;;;5035366;28;20233;-91
2022/06/21 12:22:32;;;;;;;5.03;4.63;;;;;;;;;;5036027;28;20321;-90
2022/06/21 12:25:01;;;;;;;5.63;5.22;;;;;;;;;;5035330;28;20709;-90
2022/06/21 12:27:29;;;;;;;7.88;5.43;;;;;;;;;;5036031;28;20199;-90
2022/06/21 12:30:08;;;;;;;7.53;5.68;;;;;;;;;;5035894;28;20276;-90
2022/06/21 12:32:35;;;;;;;6.68;5.90;;;;;;;;;;5034870;28;20227;-90
2022/06/21 12:35:08;;;;;;;11.05;6.80;;;;;;;;;;5035119;28;20202;-90
2022/06/21 12:37:39;;;;;;;7.22;6.45;;;;;;;;;;5035803;28;20550;-90
2022/06/21 12:40:26;;;;;;;7.85;7.15;;;;;;;;;;5035551;28;20223;-90
2022/06/21 12:43:19;;;;;;;9.18;6.18;;;;;;;;;;5035427;28;20222;-90
2022/06/21 12:46:06;;;;;;;10.07;7.97;;;;;;;;;;5035231;28;20194;-94
2022/06/21 12:48:54;;;;;;;9.15;7.40;;;;;;;;;;5034936;28;20244;-90
2022/06/21 12:51:33;;;;;;;10.30;7.55;;;;;;;;;;5035209;28;20706;-90
2022/06/21 12:54:12;;;;;;;7.88;7.18;;;;;;;;;;5035867;28;20191;-91
2022/06/21 12:57:01;;;;;;;11.10;8.00;;;;;;;;;;5035716;28;20199;-89
2022/06/21 13:00:15;;;;;;;10.55;7.30;;;;;;;;;;5035040;28;20260;-89
2022/06/21 13:03:11;;;;;;;10.27;8.60;;;;;;;;;;4936247;29;20649;-90
2022/06/21 13:05:51;;;;;;;12.73;8.38;;;;;;;;;;4935980;29;20206;-90
2022/06/21 13:08:41;;;;;;;9.27;7.38;;;;;;;;;;4935969;29;20235;-89
2022/06/21 13:11:30;;;;;;;8.77;7.88;;;;;;;;;;4935436;29;20222;-89
2022/06/21 13:14:36;;;;;;;10.32;7.95;;;;;;;;;;4935298;29;20210;-90
2022/06/21 13:17:16;;;;;;;8.18;7.57;;;;;;;;;;4934960;29;20206;-88
2022/06/21 13:20:04;;;;;;;8.10;7.40;;;;;;;;;;4935169;29;20258;-89
2022/06/21 13:22:49;;;;;;;10.70;6.63;;;;;;;;;;4936085;29;20258;-88
2022/06/21 13:25:51;;;;;;;8.77;6.50;;;;;;;;;;4936371;29;20682;-90
2022/06/21 13:28:27;;;;;;;7.50;6.65;;;;;;;;;;4860481;29;20734;-89
2022/06/21 13:31:00;;;;;;;10.05;6.60;;;;;;;;;;4859605;29;20943;-90
2022/06/21 13:33:57;;;;;;;10.68;8.05;;;;;;;;;;4889042;29;20222;-90
2022/06/21 13:36:29;;;;;;;10.40;6.40;;;;;;;;;;4916966;29;20207;-89
2022/06/21 13:39:00;;;;;;;9.02;6.60;;;;;;;;;;4959409;28;20235;-89
2022/06/21 13:44:27;;;;;;;6.80;6.10;;;;;;;;;;4994951;28;20661;-89
2022/06/21 13:47:07;;;;;;;11.93;7.15;;;;;;;;;;4994355;28;20187;-89
2022/06/21 13:49:38;;;;;;;6.70;6.10;;;;;;;;;;4994523;28;20207;-89
2022/06/21 13:52:12;;;;;;;7.07;5.78;;;;;;;;;;4995014;28;20216;-90
2022/06/21 13:54:48;;;;;;;6.95;6.35;;;;;;;;;;4994374;28;20664;-88
2022/06/21 13:57:34;;;;;;;7.45;6.68;;;;;;;;;;4994480;28;20239;-89
2022/06/21 14:00:02;;;;;;;6.65;6.05;;;;;;;;;;4994497;28;20291;-89
2022/06/21 14:02:41;;;;;;;7.22;5.88;;;;;;;;;;4994556;28;20200;-89
2022/06/21 14:05:23;;;;;;;6.38;5.82;;;;;;;;;;4994438;28;20286;-90
2022/06/21 14:07:58;;;;;;;9.75;7.00;;;;;;;;;;4994704;28;20200;-90
2022/06/21 14:10:33;;;;;;;6.95;6.35;;;;;;;;;;4994558;28;20230;-89
2022/06/21 14:13:07;;;;;;;7.22;6.07;;;;;;;;;;4994241;28;20204;-89
2022/06/21 14:15:41;;;;;;;7.45;6.80;;;;;;;;;;4994878;28;20184;-90
2022/06/21 14:18:14;;;;;;;6.95;5.72;;;;;;;;;;4994075;28;20195;-90
2022/06/21 14:20:47;;;;;;;8.85;6.80;;;;;;;;;;5028794;28;20409;-91
2022/06/21 14:23:31;;;;;;;8.32;6.47;;;;;;;;;;5033310;28;20203;-88
2022/06/21 14:26:05;;;;;;;7.00;6.30;;;;;;;;;;5033116;28;20286;-89
2022/06/21 14:28:38;;;;;;;9.02;6.60;;;;;;;;;;5033000;28;20273;-89
2022/06/21 14:31:08;;;;;;;10.50;6.82;;;;;;;;;;5032966;28;20246;-91
2022/06/21 14:33:39;;;;;;;7.60;6.45;;;;;;;;;;5032859;28;20206;-89
2022/06/21 14:36:17;;;;;;;7.22;6.60;;;;;;;;;;5033107;28;20270;-88
2022/06/21 14:38:47;;;;;;;7.25;6.60;;;;;;;;;;5032485;28;20186;-89
2022/06/21 14:41:35;;;;;;;7.93;7.13;;;;;;;;;;5032514;28;20213;-88
2022/06/21 14:44:06;;;;;;;11.43;7.68;;;;;;;;;;5032788;28;20195;-88
2022/06/21 14:46:58;;;;;;;7.55;6.70;;;;;;;;;;5033096;28;20634;-89
2022/06/21 14:49:34;;;;;;;12.15;6.68;;;;;;;;;;5032876;28;20203;-89
2022/06/21 14:52:23;;;;;;;8.57;6.70;;;;;;;;;;5032528;28;20234;-87
2022/06/21 14:55:07;;;;;;;11.32;6.70;;;;;;;;;;5050899;28;20205;-90
2022/06/21 14:57:46;;;;;;;13.88;7.78;;;;;;;;;;5043471;28;20240;-90
2022/06/21 15:00:20;;;;;;;8.95;7.10;;;;;;;;;;5032631;28;20266;-89
2022/06/21 15:03:07;;;;;;;10.48;7.15;;;;;;;;;;5032765;28;20179;-88
2022/06/21 15:08:46;;;;;;;8.18;7.38;;;;;;;;;;5022028;28;20218;-89
2022/06/21 15:11:22;;;;;;;9.10;6.63;;;;;;;;;;5032428;28;20222;-89
2022/06/21 15:14:03;;;;;;;11.15;7.10;;;;;;;;;;5033014;28;20651;-88
2022/06/21 15:16:33;;;;;;;7.70;7.00;;;;;;;;;;5032760;28;20237;-88
2022/06/21 15:22:19;;;;;;;8.05;7.15;;;;;;;;;;5016901;28;20210;-89
2022/06/21 15:25:00;;;;;;;9.70;6.93;;;;;;;;;;5012848;28;20223;-89
2022/06/21 15:27:30;;;;;;;12.52;7.45;;;;;;;;;;5012836;28;20199;-90
2022/06/21 15:30:07;;;;;;;10.18;8.00;;;;;;;;;;5012552;28;20219;-89
2022/06/21 15:32:39;;;;;;;8.98;6.95;;;;;;;;;;5012637;28;20199;-89
2022/06/21 15:37:38;;;;;;;9.95;6.95;;;;;;;;;;4987490;28;20212;-88
2022/06/21 15:40:17;;;;;;;7.65;6.95;;;;;;;;;;5015629;28;20253;-89
2022/06/21 15:42:59;;;;;;;7.82;7.22;;;;;;;;;;5032738;28;20217;-89
2022/06/21 15:45:32;;;;;;;7.40;6.90;;;;;;;;;;5032529;28;20222;-88
2022/06/21 15:50:59;;;;;;;9.02;7.70;;;;;;;;;;5032323;28;20291;-88
2022/06/21 15:53:35;;;;;;;8.15;7.20;;;;;;;;;;5032360;28;20193;-89
2022/06/21 15:56:17;;;;;;;8.38;7.55;;;;;;;;;;5032189;28;20190;-89
2022/06/21 15:59:26;;;;;;;8.30;7.55;;;;;;;;;;5031861;28;20254;-88
2022/06/21 16:02:07;;;;;;;8.55;7.47;;;;;;;;;;4958138;28;20233;-90
2022/06/21 16:04:46;;;;;;;9.88;7.65;;;;;;;;;;5031829;28;20191;-88
2022/06/21 16:10:51;;;;;;;12.60;7.13;;;;;;;;;;5035831;28;20305;-90
2022/06/21 16:13:27;;;;;;;8.45;7.05;;;;;;;;;;5035684;28;20206;-89
2022/06/21 16:15:56;;;;;;;9.05;6.95;;;;;;;;;;5035605;28;20191;-89